createdAt,value
2019-02-08T00:01:43.865Z,29.25
2019-02-08T00:04:17.086Z,27.00
2019-02-08T00:06:49.426Z,23.80
2019-02-08T00:09:24.415Z,12.80
2019-02-08T00:12:00.985Z,21.60
2019-02-08T00:14:35.550Z,19.00
2019-02-08T00:17:08.041Z,18.20
2019-02-08T00:19:41.313Z,15.40
2019-02-08T00:22:14.360Z,15.00
2019-02-08T00:24:47.888Z,13.80
2019-02-08T00:27:20.815Z,13.00
2019-02-08T00:29:53.946Z,17.40
2019-02-08T00:32:27.242Z,16.80
2019-02-08T00:35:02.268Z,16.00
2019-02-08T00:37:35.283Z,16.00
2019-02-08T00:40:18.178Z,13.20
2019-02-08T00:42:51.319Z,16.00
2019-02-08T00:45:28.357Z,11.60
2019-02-08T00:48:00.795Z,14.40
2019-02-08T00:50:33.489Z,15.00
2019-02-08T00:53:06.250Z,15.40
2019-02-08T00:55:39.117Z,15.20
2019-02-08T00:58:14.091Z,15.60
2019-02-08T01:00:46.580Z,15.40
2019-02-08T01:03:19.220Z,15.20
2019-02-08T01:05:52.569Z,13.60
2019-02-08T01:08:26.511Z,13.20
2019-02-08T01:10:59.246Z,15.80
2019-02-08T01:13:33.125Z,14.60
2019-02-08T01:16:07.139Z,12.40
2019-02-08T01:18:39.493Z,11.40
2019-02-08T01:21:12.233Z,11.80
2019-02-08T01:23:45.796Z,14.00
2019-02-08T01:26:18.307Z,12.20
2019-02-08T01:28:51.098Z,10.80
2019-02-08T01:31:24.469Z,12.20
2019-02-08T01:33:57.210Z,13.20
2019-02-08T01:36:29.528Z,12.60
2019-02-08T01:39:04.312Z,11.20
2019-02-08T01:41:37.461Z,10.20
2019-02-08T01:44:12.517Z,11.00
2019-02-08T01:46:45.184Z,8.60
2019-02-08T01:49:17.552Z,8.20
2019-02-08T01:51:50.180Z,6.00
2019-02-08T01:54:27.503Z,7.00
2019-02-08T01:57:00.386Z,7.00
2019-02-08T01:59:33.135Z,5.00
2019-02-08T02:02:05.900Z,5.20
2019-02-08T02:04:44.346Z,6.80
2019-02-08T02:07:19.417Z,6.60
2019-02-08T02:09:51.747Z,8.20
2019-02-08T02:12:28.174Z,8.00
2019-02-08T02:15:19.521Z,6.40
2019-02-08T02:17:54.485Z,8.00
2019-02-08T02:20:35.068Z,8.60
2019-02-08T02:23:20.136Z,7.20
2019-02-08T02:28:44.279Z,6.20
2019-02-08T02:31:16.799Z,6.40
2019-02-08T02:33:51.677Z,7.40
2019-02-08T02:36:27.819Z,6.00
2019-02-08T02:39:00.961Z,6.60
2019-02-08T02:41:34.766Z,6.00
2019-02-08T02:44:07.367Z,6.20
2019-02-08T02:46:39.992Z,6.00
2019-02-08T02:49:13.603Z,5.80
2019-02-08T02:51:48.043Z,7.20
2019-02-08T02:54:22.406Z,6.00
2019-02-08T02:56:57.762Z,6.00
2019-02-08T02:59:31.539Z,6.00
2019-02-08T03:02:04.172Z,6.00
2019-02-08T03:04:38.924Z,4.40
2019-02-08T03:07:28.952Z,4.80
2019-02-08T03:10:02.575Z,5.40
2019-02-08T03:12:36.289Z,4.40
2019-02-08T03:15:11.692Z,5.60
2019-02-08T03:17:46.877Z,6.00
2019-02-08T03:20:29.455Z,4.80
2019-02-08T03:23:02.024Z,4.80
2019-02-08T03:25:34.904Z,4.40
2019-02-08T03:28:07.656Z,3.80
2019-02-08T03:30:43.295Z,4.60
2019-02-08T03:33:15.984Z,4.80
2019-02-08T03:35:52.445Z,4.00
2019-02-08T03:38:25.033Z,5.00
2019-02-08T03:40:57.730Z,4.00
2019-02-08T03:43:30.457Z,4.00
2019-02-08T03:46:03.008Z,4.40
2019-02-08T03:48:35.957Z,4.60
2019-02-08T03:51:09.168Z,4.60
2019-02-08T03:53:41.667Z,3.20
2019-02-08T03:56:14.042Z,2.00
2019-02-08T03:58:47.068Z,4.60
2019-02-08T04:01:19.796Z,4.00
2019-02-08T04:03:52.458Z,4.00
2019-02-08T04:06:24.940Z,5.00
2019-02-08T04:08:57.773Z,3.80
2019-02-08T04:11:30.390Z,5.00
2019-02-08T04:14:02.822Z,5.20
2019-02-08T04:16:35.142Z,16.20
2019-02-08T04:19:07.838Z,29.50
2019-02-08T04:21:40.608Z,49.00
2019-02-08T04:24:13.414Z,92.75
2019-02-08T04:26:45.779Z,184.00
2019-02-08T04:29:18.133Z,212.20
2019-02-08T04:31:50.472Z,242.00
2019-02-08T04:34:22.788Z,255.40
2019-02-08T04:36:55.057Z,258.60
2019-02-08T04:39:27.314Z,252.40
2019-02-08T04:41:59.741Z,250.80
2019-02-08T04:44:31.992Z,254.40
2019-02-08T04:47:04.313Z,244.00
2019-02-08T04:49:36.782Z,244.40
2019-02-08T04:52:09.591Z,253.00
2019-02-08T04:54:41.932Z,242.40
2019-02-08T04:57:14.498Z,230.83
2019-02-08T04:59:47.601Z,240.83
2019-02-08T05:02:21.124Z,243.50
2019-02-08T05:04:53.622Z,229.60
2019-02-08T05:07:26.259Z,237.60
2019-02-08T05:09:58.696Z,216.60
2019-02-08T05:12:31.097Z,225.80
2019-02-08T05:15:03.468Z,217.80
2019-02-08T05:17:35.791Z,212.60
2019-02-08T05:20:10.737Z,220.00
2019-02-08T05:22:43.151Z,219.60
2019-02-08T05:25:16.195Z,212.00
2019-02-08T05:27:48.668Z,209.00
2019-02-08T05:30:28.706Z,208.75
2019-02-08T05:33:01.044Z,204.60
2019-02-08T05:35:33.382Z,202.25
2019-02-08T05:38:05.996Z,198.80
2019-02-08T05:40:38.566Z,208.60
2019-02-08T05:43:10.885Z,191.60
2019-02-08T05:45:43.513Z,173.00
2019-02-08T05:48:15.766Z,158.00
2019-02-08T05:50:48.487Z,147.50
2019-02-08T05:53:20.995Z,137.25
2019-02-08T05:55:53.425Z,127.50
2019-02-08T05:58:25.624Z,116.25
2019-02-08T06:00:58.638Z,108.50
2019-02-08T06:03:31.222Z,103.00
2019-02-08T06:06:03.667Z,95.00
2019-02-08T06:08:36.094Z,88.00
2019-02-08T06:11:08.516Z,83.50
2019-02-08T06:13:40.731Z,77.00
2019-02-08T06:16:13.168Z,75.25
2019-02-08T06:18:45.338Z,62.75
2019-02-08T06:21:17.824Z,59.50
2019-02-08T06:23:50.128Z,58.75
2019-02-08T06:26:22.600Z,55.25
2019-02-08T06:28:54.894Z,53.75
2019-02-08T06:31:27.124Z,46.50
2019-02-08T06:33:59.547Z,46.75
2019-02-08T06:36:31.741Z,44.25
2019-02-08T06:39:05.471Z,39.75
2019-02-08T06:41:37.901Z,36.25
2019-02-08T06:44:10.291Z,36.25
2019-02-08T06:46:42.574Z,35.00
2019-02-08T06:49:14.932Z,37.00
2019-02-08T06:51:47.364Z,35.75
2019-02-08T06:54:19.919Z,35.00
2019-02-08T06:56:56.607Z,34.50
2019-02-08T06:59:30.223Z,36.75
2019-02-08T07:02:22.182Z,34.25
2019-02-08T07:05:01.786Z,35.00
2019-02-08T07:07:38.257Z,35.25
2019-02-08T07:10:22.421Z,34.00
2019-02-08T07:12:55.991Z,33.50
2019-02-08T07:15:47.890Z,31.50
2019-02-08T07:18:27.631Z,32.25
2019-02-08T07:21:01.161Z,32.00
2019-02-08T07:23:47.088Z,31.50
2019-02-08T07:26:20.839Z,34.25
2019-02-08T07:28:54.435Z,33.75
2019-02-08T07:31:28.095Z,31.25
2019-02-08T07:34:14.293Z,32.00
2019-02-08T07:37:03.941Z,32.00
2019-02-08T07:39:48.631Z,30.50
2019-02-08T07:42:31.759Z,31.25
2019-02-08T07:45:08.791Z,31.00
2019-02-08T07:47:54.390Z,31.00
2019-02-08T07:50:30.877Z,29.00
2019-02-08T07:53:07.916Z,31.00
2019-02-08T07:55:45.435Z,31.25
2019-02-08T07:58:19.484Z,28.75
2019-02-08T08:00:59.706Z,29.00
2019-02-08T08:03:40.372Z,30.75
2019-02-08T08:06:20.142Z,28.25
2019-02-08T08:08:54.132Z,28.50
2019-02-08T08:11:27.818Z,28.25
2019-02-08T08:14:07.706Z,28.50
2019-02-08T08:16:47.277Z,26.75
2019-02-08T08:19:36.712Z,28.50
2019-02-08T08:22:13.489Z,27.00
2019-02-08T08:25:04.164Z,28.25
2019-02-08T08:27:38.145Z,28.25
2019-02-08T08:30:25.719Z,27.25
2019-02-08T08:33:00.566Z,27.00
2019-02-08T08:35:44.270Z,26.50
2019-02-08T08:38:38.522Z,26.75
2019-02-08T08:41:47.666Z,27.25
2019-02-08T08:44:31.139Z,26.50
2019-02-08T08:47:30.085Z,26.40
2019-02-08T08:50:22.545Z,26.80
2019-02-08T08:53:00.357Z,23.20
2019-02-08T08:55:54.597Z,23.75
2019-02-08T08:58:29.684Z,24.80
2019-02-08T09:01:06.958Z,25.60
2019-02-08T09:04:03.296Z,25.25
2019-02-08T09:06:52.690Z,25.50
2019-02-08T09:09:45.566Z,24.20
2019-02-08T09:12:32.258Z,23.20
2019-02-08T09:15:12.916Z,24.00
2019-02-08T09:18:16.264Z,23.60
2019-02-08T09:21:02.776Z,23.20
2019-02-08T09:23:49.609Z,23.20
2019-02-08T09:26:36.270Z,22.00
2019-02-08T09:29:16.901Z,17.40
2019-02-08T09:32:24.365Z,21.80
2019-02-08T09:35:05.027Z,21.20
2019-02-08T09:38:11.323Z,15.60
2019-02-08T09:40:57.933Z,16.40
2019-02-08T09:43:58.074Z,11.40
2019-02-08T09:46:52.294Z,13.20
2019-02-08T09:49:38.918Z,13.80
2019-02-08T09:52:22.469Z,14.80
2019-02-08T09:55:28.541Z,14.20
2019-02-08T09:58:18.052Z,15.00
2019-02-08T10:01:04.795Z,15.00
2019-02-08T10:03:55.910Z,14.00
2019-02-08T10:06:36.885Z,13.80
2019-02-08T10:09:23.295Z,12.80
2019-02-08T10:12:16.076Z,12.20
2019-02-08T10:14:59.703Z,11.60
2019-02-08T10:17:59.994Z,13.40
2019-02-08T10:20:57.143Z,13.40
2019-02-08T10:23:43.973Z,14.00
2019-02-08T10:26:39.807Z,11.80
2019-02-08T10:29:36.768Z,13.80
2019-02-08T10:32:40.048Z,10.40
2019-02-08T10:35:35.433Z,12.20
2019-02-08T10:38:16.266Z,11.20
2019-02-08T10:41:30.478Z,11.40
2019-02-08T10:44:35.669Z,9.00
2019-02-08T10:47:26.794Z,11.40
2019-02-08T10:50:34.362Z,7.20
2019-02-08T10:53:24.341Z,6.00
2019-02-08T10:56:17.204Z,6.80
2019-02-08T10:59:17.384Z,7.20
2019-02-08T11:02:25.099Z,7.60
2019-02-08T11:05:32.734Z,7.00
2019-02-08T11:08:27.045Z,7.40
2019-02-08T11:11:33.693Z,7.20
2019-02-08T11:14:20.081Z,6.20
2019-02-08T11:17:23.486Z,6.80
2019-02-08T11:19:59.186Z,5.60
2019-02-08T11:22:31.783Z,6.40
2019-02-08T11:25:04.401Z,6.75
2019-02-08T11:27:37.053Z,7.00
2019-02-08T11:30:15.056Z,6.00
2019-02-08T11:32:47.544Z,6.00
2019-02-08T11:35:20.098Z,6.40
2019-02-08T11:37:52.562Z,4.00
2019-02-08T11:40:27.021Z,4.00
2019-02-08T11:42:59.642Z,4.00
2019-02-08T11:45:32.136Z,3.60
2019-02-08T11:48:04.606Z,3.80
2019-02-08T11:50:37.033Z,4.40
2019-02-08T11:53:09.511Z,4.00
2019-02-08T11:55:42.011Z,3.60
2019-02-08T11:58:14.523Z,3.60
2019-02-08T12:00:51.194Z,4.00
2019-02-08T12:03:23.840Z,4.60
2019-02-08T12:05:56.393Z,4.20
2019-02-08T12:08:30.798Z,4.40
2019-02-08T12:11:03.354Z,4.00
2019-02-08T12:13:36.119Z,3.20
2019-02-08T12:16:08.653Z,3.60
2019-02-08T12:18:41.076Z,4.20
2019-02-08T12:21:13.480Z,2.60
2019-02-08T12:23:46.083Z,2.80
2019-02-08T12:26:18.774Z,3.20
2019-02-08T12:28:51.201Z,2.20
2019-02-08T12:31:23.860Z,2.80
2019-02-08T12:33:56.240Z,3.00
2019-02-08T12:36:28.768Z,3.00
2019-02-08T12:39:01.160Z,1.40
2019-02-08T12:41:34.895Z,2.00
2019-02-08T12:44:08.089Z,1.40
2019-02-08T12:46:40.588Z,1.40
2019-02-08T12:49:13.406Z,2.00
2019-02-08T12:51:45.813Z,2.20
2019-02-08T12:54:18.184Z,2.00
2019-02-08T12:56:50.561Z,2.20
2019-02-08T12:59:22.970Z,2.00
2019-02-08T13:01:55.375Z,1.80
2019-02-08T13:04:28.050Z,1.80
2019-02-08T13:07:00.520Z,1.80
2019-02-08T13:09:33.573Z,1.60
2019-02-08T13:12:06.181Z,2.00
2019-02-08T13:14:38.874Z,2.20
2019-02-08T13:17:11.360Z,1.00
2019-02-08T13:19:43.733Z,2.00
2019-02-08T13:22:16.246Z,2.00
2019-02-08T13:24:48.719Z,1.00
2019-02-08T13:27:21.261Z,1.00
2019-02-08T13:29:53.645Z,1.00
2019-02-08T13:32:26.089Z,1.00
2019-02-08T13:34:58.568Z,1.00
2019-02-08T13:37:30.944Z,1.80
2019-02-08T13:40:03.452Z,1.00
2019-02-08T13:42:35.928Z,1.00
2019-02-08T13:45:11.231Z,1.00
2019-02-08T13:47:43.789Z,1.00
2019-02-08T13:50:18.887Z,0.00
2019-02-08T13:52:51.362Z,1.00
2019-02-08T13:55:26.809Z,1.00
2019-02-08T13:58:00.353Z,1.00
2019-02-08T14:00:35.120Z,1.00
2019-02-08T14:03:08.817Z,0.20
2019-02-08T14:05:41.618Z,0.00
2019-02-08T14:08:14.090Z,1.00
2019-02-08T14:10:46.766Z,0.00
2019-02-08T14:13:19.150Z,0.40
2019-02-08T14:15:51.578Z,0.00
2019-02-08T14:18:24.162Z,0.20
2019-02-08T14:20:56.746Z,1.00
2019-02-08T14:23:29.185Z,0.00
2019-02-08T14:26:01.778Z,0.00
2019-02-08T14:28:34.352Z,0.00
2019-02-08T14:31:06.951Z,0.00
2019-02-08T14:33:39.341Z,0.00
2019-02-08T14:36:11.840Z,0.00
2019-02-08T14:38:44.220Z,0.00
2019-02-08T14:41:16.726Z,0.00
2019-02-08T14:43:49.286Z,0.00
2019-02-08T14:46:21.767Z,0.00
2019-02-08T14:48:56.291Z,0.40
2019-02-08T14:51:28.659Z,0.00
2019-02-08T14:54:01.022Z,0.00
2019-02-08T14:56:33.512Z,0.00
2019-02-08T14:59:06.242Z,0.00
2019-02-08T15:01:39.892Z,0.00
2019-02-08T15:04:13.601Z,0.20
2019-02-08T15:06:46.769Z,0.00
2019-02-08T15:09:20.157Z,0.00
2019-02-08T15:11:52.919Z,0.00
2019-02-08T15:14:25.283Z,0.00
2019-02-08T15:16:57.663Z,0.00
2019-02-08T15:19:30.148Z,0.00
2019-02-08T15:22:02.971Z,0.00
2019-02-08T15:24:35.428Z,0.40
2019-02-08T15:27:08.175Z,0.00
2019-02-08T15:29:40.605Z,0.00
2019-02-08T15:32:13.622Z,0.00
2019-02-08T15:34:46.011Z,0.00
2019-02-08T15:37:18.627Z,0.00
2019-02-08T15:39:51.563Z,0.00
2019-02-08T15:42:24.503Z,0.00
2019-02-08T15:44:56.971Z,0.00
2019-02-08T15:47:29.852Z,0.00
2019-02-08T15:50:02.659Z,0.00
2019-02-08T15:52:35.461Z,6.20
2019-02-08T15:55:10.150Z,20.80
2019-02-08T15:57:43.191Z,23.00
2019-02-08T16:00:21.028Z,27.20
2019-02-08T16:02:53.537Z,29.25
2019-02-08T16:05:26.086Z,30.25
2019-02-08T16:07:58.589Z,30.40
2019-02-08T16:10:30.782Z,30.25
2019-02-08T16:13:03.337Z,30.00
2019-02-08T16:15:35.843Z,30.50
2019-02-08T16:18:09.483Z,30.25
2019-02-08T16:20:42.413Z,29.25
2019-02-08T16:23:14.912Z,26.80
2019-02-08T16:25:47.332Z,27.40
2019-02-08T16:28:19.557Z,27.20
2019-02-08T16:30:51.793Z,26.60
2019-02-08T16:33:24.000Z,48.50
2019-02-08T16:35:56.149Z,66.75
2019-02-08T16:38:28.359Z,65.00
2019-02-08T16:41:00.954Z,58.50
2019-02-08T16:43:33.284Z,59.75
2019-02-08T16:46:07.010Z,61.75
2019-02-08T16:48:39.221Z,61.50
2019-02-08T16:51:11.613Z,61.25
2019-02-08T16:53:43.999Z,62.50
2019-02-08T16:56:16.709Z,66.00
2019-02-08T16:58:48.930Z,62.25
2019-02-08T17:01:21.752Z,64.50
2019-02-08T17:03:53.939Z,66.00
2019-02-08T17:06:26.307Z,65.00
2019-02-08T17:08:59.209Z,72.50
2019-02-08T17:11:31.867Z,73.00
2019-02-08T17:14:04.475Z,77.75
2019-02-08T17:16:36.776Z,80.50
2019-02-08T17:19:09.101Z,77.00
2019-02-08T17:21:41.425Z,81.00
2019-02-08T17:24:14.154Z,79.25
2019-02-08T17:26:46.467Z,78.75
2019-02-08T17:29:19.018Z,84.50
2019-02-08T17:31:51.301Z,78.25
2019-02-08T17:34:23.883Z,80.25
2019-02-08T17:36:56.099Z,79.00
2019-02-08T17:39:28.442Z,82.50
2019-02-08T17:42:00.870Z,78.25
2019-02-08T17:44:34.212Z,77.25
2019-02-08T17:47:06.570Z,77.00
2019-02-08T17:49:38.881Z,78.50
2019-02-08T17:52:12.178Z,77.75
2019-02-08T17:54:44.671Z,77.75
2019-02-08T17:57:16.849Z,72.75
2019-02-08T17:59:49.092Z,68.75
2019-02-08T18:02:21.890Z,70.25
2019-02-08T18:04:54.668Z,73.75
2019-02-08T18:07:27.330Z,70.25
2019-02-08T18:10:00.013Z,73.25
2019-02-08T18:12:32.678Z,71.00
2019-02-08T18:15:06.578Z,74.00
2019-02-08T18:17:38.773Z,77.50
2019-02-08T18:20:19.205Z,86.50
2019-02-08T18:22:51.420Z,87.00
2019-02-08T18:25:23.991Z,91.75
2019-02-08T18:27:56.291Z,98.50
2019-02-08T18:30:29.740Z,97.50
2019-02-08T18:33:02.324Z,100.00
2019-02-08T18:35:34.919Z,96.75
2019-02-08T18:38:08.161Z,100.00
2019-02-08T18:40:40.718Z,100.50
2019-02-08T18:43:13.150Z,101.25
2019-02-08T18:45:45.374Z,103.75
2019-02-08T18:48:17.671Z,97.50
2019-02-08T18:50:54.722Z,93.50
2019-02-08T18:53:27.419Z,97.75
2019-02-08T18:55:59.814Z,98.25
2019-02-08T18:58:31.996Z,95.00
2019-02-08T19:03:46.925Z,105.00
2019-02-08T19:06:19.382Z,98.50
2019-02-08T19:08:51.698Z,91.75
2019-02-08T19:11:24.309Z,81.00
2019-02-08T19:13:56.580Z,86.25
2019-02-08T19:16:29.235Z,83.00
2019-02-08T19:19:01.445Z,87.75
2019-02-08T19:21:33.968Z,85.25
2019-02-08T19:24:07.286Z,84.75
2019-02-08T19:26:39.934Z,84.50
2019-02-08T19:29:12.357Z,82.25
2019-02-08T19:31:44.861Z,80.50
2019-02-08T19:34:17.073Z,81.75
2019-02-08T19:36:49.659Z,77.50
2019-02-08T19:39:21.970Z,80.00
2019-02-08T19:41:54.263Z,80.25
2019-02-08T19:44:26.470Z,77.75
2019-02-08T19:46:59.096Z,76.75
2019-02-08T19:49:31.413Z,76.25
2019-02-08T19:52:04.137Z,69.75
2019-02-08T19:54:36.543Z,74.25
2019-02-08T19:57:09.030Z,70.25
2019-02-08T19:59:41.195Z,71.00
2019-02-08T20:02:13.817Z,71.75
2019-02-08T20:04:46.368Z,65.50
2019-02-08T20:07:18.577Z,65.75
2019-02-08T20:09:50.960Z,67.75
2019-02-08T20:12:23.449Z,69.50
2019-02-08T20:14:55.738Z,70.00
2019-02-08T20:17:29.397Z,62.25
2019-02-08T20:20:01.938Z,64.50
2019-02-08T20:22:34.113Z,67.00
2019-02-08T20:25:08.788Z,66.50
2019-02-08T20:27:42.563Z,63.25
2019-02-08T20:30:16.963Z,64.75
2019-02-08T20:32:49.372Z,62.25
2019-02-08T20:35:23.598Z,66.75
2019-02-08T20:37:56.115Z,61.75
2019-02-08T20:40:39.762Z,57.75
2019-02-08T20:43:12.066Z,61.50
2019-02-08T20:45:44.584Z,59.00
2019-02-08T20:48:21.426Z,57.00
2019-02-08T20:50:53.900Z,60.75
2019-02-08T20:53:26.303Z,56.00
2019-02-08T20:55:58.588Z,57.00
2019-02-08T20:58:31.700Z,57.25
2019-02-08T21:01:04.722Z,57.50
2019-02-08T21:03:36.932Z,53.50
2019-02-08T21:06:09.249Z,54.75
2019-02-08T21:08:41.480Z,54.00
2019-02-08T21:11:14.000Z,54.25
2019-02-08T21:13:46.520Z,53.00
2019-02-08T21:16:19.131Z,44.50
2019-02-08T21:18:51.803Z,52.50
2019-02-08T21:21:24.121Z,46.00
2019-02-08T21:23:56.528Z,52.50
2019-02-08T21:26:29.113Z,51.50
2019-02-08T21:29:02.146Z,48.50
2019-02-08T21:31:34.519Z,47.00
2019-02-08T21:34:07.086Z,44.50
2019-02-08T21:36:39.658Z,39.00
2019-02-08T21:39:11.919Z,34.50
2019-02-08T21:41:44.073Z,31.75
2019-02-08T21:44:16.407Z,30.25
2019-02-08T21:46:48.801Z,28.00
2019-02-08T21:49:21.051Z,26.40
2019-02-08T21:51:53.366Z,24.60
2019-02-08T21:54:25.724Z,22.20
2019-02-08T21:56:58.052Z,22.80
2019-02-08T21:59:30.818Z,22.20
2019-02-08T22:02:03.113Z,22.20
2019-02-08T22:04:35.869Z,17.00
2019-02-08T22:07:08.369Z,18.20
2019-02-08T22:09:40.709Z,14.20
2019-02-08T22:12:13.203Z,17.20
2019-02-08T22:14:45.859Z,14.60
2019-02-08T22:17:18.246Z,16.20
2019-02-08T22:19:50.828Z,13.40
2019-02-08T22:22:23.141Z,13.20
2019-02-08T22:24:55.556Z,13.00
2019-02-08T22:27:27.953Z,11.80
2019-02-08T22:30:00.530Z,13.60
2019-02-08T22:32:33.067Z,16.80
2019-02-08T22:35:06.632Z,15.00
2019-02-08T22:37:39.281Z,14.20
2019-02-08T22:40:14.497Z,12.20
2019-02-08T22:42:47.061Z,15.40
2019-02-08T22:45:21.771Z,13.00
2019-02-08T22:47:54.065Z,14.20
2019-02-08T22:50:26.475Z,12.40
2019-02-08T22:52:59.365Z,10.00
2019-02-08T22:55:33.081Z,8.40
2019-02-08T22:58:06.474Z,9.60
2019-02-08T23:00:41.664Z,9.40
2019-02-08T23:03:17.010Z,8.40
2019-02-08T23:05:49.593Z,7.20
2019-02-08T23:08:22.045Z,6.40
2019-02-08T23:10:54.470Z,7.60
2019-02-08T23:13:27.134Z,6.60
2019-02-08T23:16:00.166Z,6.00
2019-02-08T23:18:32.754Z,6.40
2019-02-08T23:21:06.189Z,9.00
2019-02-08T23:23:39.541Z,7.60
2019-02-08T23:26:12.141Z,6.80
2019-02-08T23:28:45.688Z,6.00
2019-02-08T23:31:18.509Z,5.60
2019-02-08T23:33:52.121Z,6.00
2019-02-08T23:36:25.716Z,6.20
2019-02-08T23:38:58.401Z,7.00
2019-02-08T23:41:30.887Z,6.40
2019-02-08T23:44:03.432Z,6.60
2019-02-08T23:46:36.129Z,7.00
2019-02-08T23:49:08.712Z,6.00
2019-02-08T23:51:41.207Z,6.00
2019-02-08T23:54:13.705Z,5.80
2019-02-08T23:56:46.093Z,5.20
2019-02-08T23:59:19.580Z,6.40
